createdAt,value
2019-03-04T00:00:55.626Z,9.73
2019-03-04T00:03:23.905Z,8.40
2019-03-04T00:05:51.565Z,7.43
2019-03-04T00:08:19.696Z,12.83
2019-03-04T00:10:49.192Z,9.23
2019-03-04T00:13:18.161Z,9.40
2019-03-04T00:15:46.438Z,7.17
2019-03-04T00:18:14.722Z,7.90
2019-03-04T00:20:46.199Z,11.00
2019-03-04T00:23:13.687Z,9.23
2019-03-04T00:25:41.465Z,8.00
2019-03-04T00:28:09.798Z,6.40
2019-03-04T00:30:39.033Z,8.23
2019-03-04T00:33:07.771Z,10.47
2019-03-04T00:35:35.663Z,8.90
2019-03-04T00:38:04.351Z,7.67
2019-03-04T00:40:32.057Z,7.23
2019-03-04T00:42:59.992Z,6.43
2019-03-04T00:45:27.689Z,5.43
2019-03-04T00:47:55.329Z,9.10
2019-03-04T00:50:23.711Z,7.20
2019-03-04T00:52:52.295Z,9.37
2019-03-04T00:55:20.002Z,7.37
2019-03-04T00:57:48.120Z,6.20
2019-03-04T01:00:18.076Z,11.97
2019-03-04T01:02:46.434Z,8.63
2019-03-04T01:05:14.422Z,6.30
2019-03-04T01:07:45.513Z,3.90
2019-03-04T01:10:14.774Z,7.80
2019-03-04T01:12:43.161Z,6.30
2019-03-04T01:15:12.250Z,5.57
2019-03-04T01:17:40.582Z,7.30
2019-03-04T01:20:11.118Z,6.77
2019-03-04T01:22:38.777Z,4.00
2019-03-04T01:25:08.240Z,8.13
2019-03-04T01:27:36.161Z,5.60
2019-03-04T01:30:05.165Z,4.63
2019-03-04T01:32:33.151Z,4.77
2019-03-04T01:35:01.189Z,4.87
2019-03-04T01:37:28.566Z,3.87
2019-03-04T01:39:57.052Z,5.30
2019-03-04T01:42:25.020Z,6.07
2019-03-04T01:44:52.956Z,9.33
2019-03-04T01:47:21.480Z,8.40
2019-03-04T01:49:49.596Z,7.93
2019-03-04T01:52:17.301Z,10.33
2019-03-04T01:54:46.174Z,13.33
2019-03-04T01:57:15.080Z,11.93
2019-03-04T01:59:42.630Z,8.60
2019-03-04T02:02:11.434Z,6.00
2019-03-04T02:04:39.398Z,5.57
2019-03-04T02:07:07.720Z,3.93
2019-03-04T02:09:36.127Z,5.20
2019-03-04T02:12:03.977Z,6.93
2019-03-04T02:14:31.246Z,3.00
2019-03-04T02:17:00.135Z,4.50
2019-03-04T02:19:28.225Z,2.60
2019-03-04T02:21:56.979Z,3.87
2019-03-04T02:24:25.512Z,3.23
2019-03-04T02:26:57.352Z,6.00
2019-03-04T02:29:26.076Z,3.83
2019-03-04T02:31:56.610Z,2.80
2019-03-04T02:34:25.155Z,3.37
2019-03-04T02:36:53.541Z,6.90
2019-03-04T02:39:22.218Z,3.67
2019-03-04T02:41:50.594Z,1.73
2019-03-04T02:44:18.589Z,2.53
2019-03-04T02:46:48.031Z,7.40
2019-03-04T02:49:16.866Z,5.17
2019-03-04T02:51:45.226Z,4.27
2019-03-04T02:54:14.270Z,2.40
2019-03-04T02:56:42.303Z,4.60
2019-03-04T02:59:10.678Z,3.77
2019-03-04T03:01:38.655Z,2.77
2019-03-04T03:04:06.738Z,8.00
2019-03-04T03:06:34.712Z,2.00
2019-03-04T03:09:04.616Z,5.10
2019-03-04T03:11:34.187Z,4.50
2019-03-04T03:14:01.888Z,7.50
2019-03-04T03:16:30.481Z,5.43
2019-03-04T03:18:58.176Z,6.97
2019-03-04T03:21:26.391Z,2.90
2019-03-04T03:23:54.272Z,3.67
2019-03-04T03:26:22.045Z,5.03
2019-03-04T03:28:50.111Z,4.90
2019-03-04T03:31:19.787Z,4.33
2019-03-04T03:33:48.707Z,4.10
2019-03-04T03:36:17.012Z,5.23
2019-03-04T03:38:45.471Z,3.10
2019-03-04T03:41:14.267Z,3.17
2019-03-04T03:43:42.845Z,2.53
2019-03-04T03:46:11.197Z,2.90
2019-03-04T03:48:39.234Z,3.20
2019-03-04T03:51:07.995Z,4.77
2019-03-04T03:53:36.082Z,5.27
2019-03-04T03:56:04.024Z,4.63
2019-03-04T03:58:33.224Z,4.33
2019-03-04T04:01:02.334Z,3.00
2019-03-04T04:03:29.969Z,5.13
2019-03-04T04:05:58.009Z,5.37
2019-03-04T04:08:27.182Z,3.93
2019-03-04T04:10:56.000Z,5.73
2019-03-04T04:13:26.208Z,5.67
2019-03-04T04:15:54.369Z,6.30
2019-03-04T04:18:22.703Z,4.30
2019-03-04T04:20:50.579Z,4.00
2019-03-04T04:23:18.635Z,4.23
2019-03-04T04:25:45.875Z,5.50
2019-03-04T04:28:13.225Z,9.50
2019-03-04T04:30:42.115Z,8.90
2019-03-04T04:33:10.542Z,4.57
2019-03-04T04:35:39.189Z,5.23
2019-03-04T04:38:07.750Z,5.07
2019-03-04T04:40:36.206Z,5.30
2019-03-04T04:43:03.865Z,3.97
2019-03-04T04:45:32.335Z,6.00
2019-03-04T04:48:00.522Z,4.17
2019-03-04T04:50:29.016Z,5.37
2019-03-04T04:52:56.319Z,5.27
2019-03-04T04:55:24.729Z,7.40
2019-03-04T04:57:52.756Z,7.53
2019-03-04T05:00:20.608Z,6.83
2019-03-04T05:02:48.161Z,5.10
2019-03-04T05:05:16.156Z,6.20
2019-03-04T05:07:44.623Z,4.63
2019-03-04T05:10:14.705Z,6.33
2019-03-04T05:12:43.172Z,6.10
2019-03-04T05:15:11.464Z,5.07
2019-03-04T05:17:39.888Z,10.30
2019-03-04T05:20:11.085Z,6.80
2019-03-04T05:22:39.569Z,8.43
2019-03-04T05:25:08.253Z,5.77
2019-03-04T05:27:36.939Z,5.97
2019-03-04T05:30:05.964Z,6.00
2019-03-04T05:32:35.642Z,7.63
2019-03-04T05:35:04.434Z,6.87
2019-03-04T05:37:32.823Z,3.60
2019-03-04T05:40:01.710Z,11.10
2019-03-04T05:42:29.677Z,9.10
2019-03-04T05:44:58.404Z,4.70
2019-03-04T05:50:12.690Z,7.70
2019-03-04T05:52:40.711Z,13.53
2019-03-04T05:55:13.066Z,8.70
2019-03-04T05:57:41.385Z,6.03
2019-03-04T06:00:13.250Z,7.17
2019-03-04T06:02:41.709Z,6.60
2019-03-04T06:05:12.427Z,9.73
2019-03-04T06:07:43.715Z,6.80
2019-03-04T06:10:12.040Z,6.47
2019-03-04T06:12:40.472Z,7.90
2019-03-04T06:15:12.314Z,5.67
2019-03-04T06:17:40.883Z,7.17
2019-03-04T06:20:08.739Z,7.53
2019-03-04T06:22:37.795Z,5.30
2019-03-04T06:25:08.116Z,6.90
2019-03-04T06:27:37.903Z,8.30
2019-03-04T06:30:06.959Z,8.20
2019-03-04T06:32:35.041Z,5.10
2019-03-04T06:35:03.913Z,6.90
2019-03-04T06:37:32.244Z,5.20
2019-03-04T06:40:00.696Z,5.70
2019-03-04T06:42:28.700Z,6.57
2019-03-04T06:44:57.560Z,6.30
2019-03-04T06:47:25.969Z,13.37
2019-03-04T06:49:54.431Z,10.10
2019-03-04T06:52:22.832Z,5.50
2019-03-04T06:55:41.861Z,5.50
2019-03-04T06:58:10.643Z,5.63
2019-03-04T07:01:11.305Z,8.90
2019-03-04T07:03:51.773Z,4.03
2019-03-04T07:06:19.792Z,4.27
2019-03-04T07:09:08.771Z,2.93
2019-03-04T07:11:36.979Z,7.10
2019-03-04T07:14:05.311Z,4.33
2019-03-04T07:16:33.314Z,5.93
2019-03-04T07:19:03.565Z,5.17
2019-03-04T07:21:31.474Z,3.60
2019-03-04T07:23:59.748Z,4.53
2019-03-04T07:26:27.729Z,4.60
2019-03-04T07:28:56.131Z,2.70
2019-03-04T07:31:24.535Z,3.50
2019-03-04T07:33:53.607Z,7.93
2019-03-04T07:36:21.271Z,7.23
2019-03-04T07:38:57.084Z,3.97
2019-03-04T07:41:26.249Z,3.80
2019-03-04T07:43:54.336Z,4.00
2019-03-04T07:46:22.400Z,2.63
2019-03-04T07:48:56.287Z,4.50
2019-03-04T07:51:24.396Z,4.67
2019-03-04T07:53:52.527Z,4.80
2019-03-04T07:56:20.196Z,5.30
2019-03-04T07:58:47.886Z,3.80
2019-03-04T08:01:16.455Z,3.90
2019-03-04T08:03:45.228Z,3.57
2019-03-04T08:06:13.342Z,6.37
2019-03-04T08:09:14.567Z,4.37
2019-03-04T08:12:15.417Z,2.30
2019-03-04T08:14:43.123Z,3.53
2019-03-04T08:17:11.371Z,2.83
2019-03-04T08:19:39.327Z,4.00
2019-03-04T08:22:07.285Z,7.47
2019-03-04T08:24:36.057Z,2.30
2019-03-04T08:27:06.215Z,2.43
2019-03-04T08:29:34.690Z,3.20
2019-03-04T08:32:02.759Z,3.10
2019-03-04T08:34:31.458Z,6.23
2019-03-04T08:36:59.397Z,3.60
2019-03-04T08:39:27.822Z,3.80
2019-03-04T08:41:55.969Z,6.10
2019-03-04T08:44:23.319Z,3.70
2019-03-04T08:46:51.387Z,7.00
2019-03-04T08:49:19.452Z,8.03
2019-03-04T08:51:47.326Z,2.13
2019-03-04T08:54:15.808Z,2.63
2019-03-04T08:56:43.898Z,2.60
2019-03-04T08:59:12.243Z,6.40
2019-03-04T09:01:40.238Z,7.17
2019-03-04T09:04:08.308Z,4.20
2019-03-04T09:06:55.392Z,5.23
2019-03-04T09:09:23.749Z,7.80
2019-03-04T09:11:51.752Z,5.33
2019-03-04T09:14:20.661Z,3.07
2019-03-04T09:16:49.170Z,7.57
2019-03-04T09:19:17.204Z,5.17
2019-03-04T09:21:45.680Z,3.53
2019-03-04T09:24:14.082Z,4.40
2019-03-04T09:26:42.231Z,4.07
2019-03-04T09:29:10.402Z,9.00
2019-03-04T09:31:38.992Z,7.33
2019-03-04T09:34:08.459Z,5.63
2019-03-04T09:36:36.885Z,17.13
2019-03-04T09:39:06.158Z,5.60
2019-03-04T09:41:34.556Z,3.50
2019-03-04T09:44:02.267Z,6.40
2019-03-04T09:46:30.416Z,3.73
2019-03-04T09:48:58.675Z,4.13
2019-03-04T09:51:27.459Z,8.83
2019-03-04T09:53:56.823Z,3.20
2019-03-04T09:56:24.126Z,7.53
2019-03-04T09:58:54.499Z,4.13
2019-03-04T10:01:41.555Z,6.93
2019-03-04T10:04:50.202Z,8.80
2019-03-04T10:08:02.219Z,11.73
2019-03-04T10:11:11.539Z,5.20
2019-03-04T10:14:04.899Z,3.77
2019-03-04T10:17:00.622Z,8.73
2019-03-04T10:20:04.232Z,8.03
2019-03-04T10:23:07.831Z,4.90
2019-03-04T10:25:52.178Z,5.43
2019-03-04T10:28:53.181Z,4.40
2019-03-04T10:31:49.466Z,4.30
2019-03-04T10:34:49.393Z,8.07
2019-03-04T10:37:51.941Z,6.60
2019-03-04T10:40:59.245Z,15.83
2019-03-04T10:44:20.917Z,9.07
2019-03-04T10:46:56.450Z,3.40
2019-03-04T10:49:26.351Z,4.43
2019-03-04T10:51:54.955Z,5.30
2019-03-04T10:54:23.147Z,5.40
2019-03-04T10:56:50.865Z,6.27
2019-03-04T10:59:19.690Z,3.80
2019-03-04T11:01:49.988Z,2.63
2019-03-04T11:04:17.960Z,3.40
2019-03-04T11:06:45.657Z,3.47
2019-03-04T11:09:13.900Z,5.00
2019-03-04T11:11:43.388Z,3.27
2019-03-04T11:14:12.674Z,5.70
2019-03-04T11:16:40.711Z,10.50
2019-03-04T11:19:09.469Z,4.10
2019-03-04T11:21:38.157Z,4.53
2019-03-04T11:24:07.791Z,3.73
2019-03-04T11:26:35.506Z,4.30
2019-03-04T11:29:04.213Z,5.30
2019-03-04T11:31:32.849Z,8.83
2019-03-04T11:34:01.337Z,3.40
2019-03-04T11:36:29.793Z,5.77
2019-03-04T11:39:21.301Z,15.53
2019-03-04T11:41:50.166Z,5.77
2019-03-04T11:44:18.495Z,6.33
2019-03-04T11:46:46.241Z,7.40
2019-03-04T11:49:15.417Z,3.63
2019-03-04T11:51:43.962Z,4.80
2019-03-04T11:54:12.672Z,9.23
2019-03-04T11:56:41.479Z,9.60
2019-03-04T11:59:10.152Z,8.60
2019-03-04T12:01:44.629Z,5.17
2019-03-04T12:04:12.739Z,5.37
2019-03-04T12:06:40.419Z,2.80
2019-03-04T12:09:13.393Z,2.93
2019-03-04T12:11:42.097Z,4.50
2019-03-04T12:14:10.204Z,6.47
2019-03-04T12:16:38.432Z,10.20
2019-03-04T12:19:06.526Z,3.70
2019-03-04T12:21:34.995Z,6.60
2019-03-04T12:24:02.322Z,5.53
2019-03-04T12:26:30.868Z,5.23
2019-03-04T12:28:58.633Z,8.10
2019-03-04T12:31:30.717Z,8.43
2019-03-04T12:33:58.332Z,2.77
2019-03-04T12:36:29.571Z,9.47
2019-03-04T12:38:58.033Z,8.83
2019-03-04T12:41:25.877Z,11.30
2019-03-04T12:43:55.123Z,4.13
2019-03-04T12:46:23.282Z,6.00
2019-03-04T12:48:51.382Z,4.43
2019-03-04T12:51:23.391Z,2.47
2019-03-04T12:53:50.675Z,4.30
2019-03-04T12:56:18.396Z,5.10
2019-03-04T12:58:47.255Z,3.30
2019-03-04T13:01:15.975Z,4.70
2019-03-04T13:03:43.901Z,4.00
2019-03-04T13:06:12.670Z,3.57
2019-03-04T13:08:40.536Z,5.80
2019-03-04T13:11:09.657Z,11.63
2019-03-04T13:13:38.022Z,3.17
2019-03-04T13:16:06.500Z,4.33
2019-03-04T13:18:34.899Z,1.43
2019-03-04T13:21:03.421Z,4.90
2019-03-04T13:23:31.254Z,7.57
2019-03-04T13:26:01.567Z,3.80
2019-03-04T13:28:30.354Z,6.97
2019-03-04T13:30:58.734Z,2.60
2019-03-04T13:33:26.818Z,3.03
2019-03-04T13:35:56.529Z,3.43
2019-03-04T13:38:24.290Z,6.07
2019-03-04T13:40:51.966Z,6.20
2019-03-04T13:43:22.670Z,6.53
2019-03-04T13:45:50.392Z,6.97
2019-03-04T13:48:19.129Z,8.43
2019-03-04T13:51:38.658Z,3.53
2019-03-04T13:54:06.732Z,2.77
2019-03-04T13:56:35.371Z,4.13
2019-03-04T13:59:04.507Z,3.43
2019-03-04T14:01:33.453Z,3.13
2019-03-04T14:04:02.547Z,3.10
2019-03-04T14:06:29.856Z,2.20
2019-03-04T14:09:04.152Z,4.73
2019-03-04T14:11:32.440Z,2.10
2019-03-04T14:14:01.961Z,3.50
2019-03-04T14:16:30.181Z,3.43
2019-03-04T14:18:58.872Z,2.40
2019-03-04T14:21:27.686Z,7.33
2019-03-04T14:23:56.254Z,5.70
2019-03-04T14:26:24.588Z,3.80
2019-03-04T14:28:52.914Z,3.67
2019-03-04T14:31:21.003Z,5.27
2019-03-04T14:33:49.189Z,4.33
2019-03-04T14:36:18.534Z,4.77
2019-03-04T14:38:47.023Z,6.30
2019-03-04T14:41:15.967Z,4.30
2019-03-04T14:43:44.508Z,3.10
2019-03-04T14:46:21.415Z,6.20
2019-03-04T14:48:49.910Z,4.17
2019-03-04T14:51:19.029Z,1.53
2019-03-04T14:53:47.438Z,3.87
2019-03-04T14:56:22.386Z,4.93
2019-03-04T14:58:46.176Z,0.70
2019-03-04T15:01:15.010Z,1.17
2019-03-04T15:03:43.058Z,2.00
2019-03-04T15:06:11.722Z,1.67
2019-03-04T15:08:41.915Z,0.80
2019-03-04T15:11:10.829Z,1.57
2019-03-04T15:13:39.062Z,1.07
2019-03-04T15:16:08.075Z,1.50
2019-03-04T15:18:36.575Z,2.70
2019-03-04T15:21:09.597Z,1.67
2019-03-04T15:23:38.310Z,1.80
2019-03-04T15:26:06.192Z,4.03
2019-03-04T15:28:34.709Z,1.43
2019-03-04T15:31:02.459Z,2.40
2019-03-04T15:33:30.226Z,0.97
2019-03-04T15:35:59.108Z,1.23
2019-03-04T15:38:29.255Z,0.90
2019-03-04T15:40:57.719Z,1.30
2019-03-04T15:43:26.765Z,1.47
2019-03-04T15:45:56.182Z,0.93
2019-03-04T15:48:25.799Z,5.10
2019-03-04T15:50:55.634Z,6.43
2019-03-04T15:53:24.354Z,1.70
2019-03-04T15:55:52.504Z,0.80
2019-03-04T15:58:21.067Z,3.27
2019-03-04T16:00:49.700Z,1.90
2019-03-04T16:03:18.315Z,3.03
2019-03-04T16:05:46.947Z,1.77
2019-03-04T16:08:15.188Z,1.73
2019-03-04T16:10:44.064Z,3.30
2019-03-04T16:13:12.173Z,3.93
2019-03-04T16:15:40.906Z,2.83
2019-03-04T16:18:09.463Z,1.73
2019-03-04T16:20:38.060Z,1.90
2019-03-04T16:23:07.318Z,4.33
2019-03-04T16:25:36.029Z,4.93
2019-03-04T16:28:10.205Z,2.37
2019-03-04T16:30:38.928Z,6.90
2019-03-04T16:33:06.720Z,3.20
2019-03-04T16:35:34.879Z,16.07
2019-03-04T16:38:03.375Z,2.00
2019-03-04T16:40:31.839Z,2.37
2019-03-04T16:42:59.934Z,6.73
2019-03-04T16:45:28.855Z,3.33
2019-03-04T16:47:57.099Z,3.50
2019-03-04T16:50:24.927Z,2.63
2019-03-04T16:52:53.234Z,5.03
2019-03-04T16:55:21.868Z,15.10
2019-03-04T16:57:49.581Z,4.23
2019-03-04T17:00:17.172Z,3.43
2019-03-04T17:02:45.628Z,8.43
2019-03-04T17:05:14.803Z,4.57
2019-03-04T17:07:43.240Z,6.30
2019-03-04T17:10:11.624Z,2.47
2019-03-04T17:12:39.828Z,4.33
2019-03-04T17:15:10.255Z,11.77
2019-03-04T17:17:39.283Z,2.73
2019-03-04T17:20:09.274Z,3.03
2019-03-04T17:22:37.364Z,2.60
2019-03-04T17:25:07.269Z,6.00
2019-03-04T17:27:34.915Z,7.97
2019-03-04T17:30:04.210Z,3.80
2019-03-04T17:32:32.009Z,8.10
2019-03-04T17:34:59.346Z,5.00
2019-03-04T17:37:28.044Z,10.20
2019-03-04T17:39:55.857Z,5.03
2019-03-04T17:42:24.024Z,9.60
2019-03-04T17:44:52.403Z,5.43
2019-03-04T17:47:20.393Z,6.70
2019-03-04T17:49:47.805Z,5.67
2019-03-04T17:52:16.421Z,8.63
2019-03-04T17:54:44.546Z,6.40
2019-03-04T17:57:13.666Z,16.90
2019-03-04T17:59:41.849Z,10.23
2019-03-04T18:02:10.238Z,11.37
2019-03-04T18:04:39.080Z,4.10
2019-03-04T18:07:08.436Z,10.67
2019-03-04T18:09:36.923Z,8.53
2019-03-04T18:12:05.572Z,12.30
2019-03-04T18:14:34.549Z,9.57
2019-03-04T18:17:03.024Z,5.23
2019-03-04T18:19:31.942Z,7.23
2019-03-04T18:22:00.219Z,7.40
2019-03-04T18:24:29.182Z,4.50
2019-03-04T18:27:04.834Z,14.43
2019-03-04T18:30:17.284Z,3.90
2019-03-04T18:33:50.916Z,8.10
2019-03-04T18:36:22.243Z,6.27
2019-03-04T18:39:07.530Z,7.40
2019-03-04T18:41:45.038Z,4.80
2019-03-04T18:44:34.018Z,15.27
2019-03-04T18:47:14.957Z,8.50
2019-03-04T18:49:43.413Z,8.33
2019-03-04T18:52:14.740Z,11.20
2019-03-04T18:54:45.241Z,8.43
2019-03-04T18:57:12.984Z,9.63
2019-03-04T18:59:41.243Z,9.93
2019-03-04T19:02:08.923Z,8.50
2019-03-04T19:04:38.201Z,6.70
2019-03-04T19:07:06.289Z,8.10
2019-03-04T19:09:34.989Z,6.47
2019-03-04T19:12:03.638Z,9.10
2019-03-04T19:14:34.824Z,3.60
2019-03-04T19:17:02.203Z,9.10
2019-03-04T19:19:39.158Z,5.90
2019-03-04T19:22:08.280Z,3.93
2019-03-04T19:24:35.995Z,5.30
2019-03-04T19:27:05.331Z,19.30
2019-03-04T19:29:33.497Z,9.23
2019-03-04T19:32:01.952Z,9.10
2019-03-04T19:34:29.960Z,9.27
2019-03-04T19:36:58.077Z,4.30
2019-03-04T19:39:26.511Z,4.53
2019-03-04T19:41:54.854Z,6.67
2019-03-04T19:44:22.299Z,6.00
2019-03-04T19:46:50.192Z,5.97
2019-03-04T19:49:17.980Z,7.00
2019-03-04T19:51:46.496Z,5.93
2019-03-04T19:54:14.605Z,7.40
2019-03-04T19:56:45.740Z,5.23
2019-03-04T19:59:13.806Z,10.30
2019-03-04T20:01:42.703Z,11.17
2019-03-04T20:04:10.826Z,10.20
2019-03-04T20:06:40.743Z,5.83
2019-03-04T20:09:08.903Z,10.17
2019-03-04T20:11:38.278Z,8.63
2019-03-04T20:14:05.984Z,10.87
2019-03-04T20:16:37.671Z,9.93
2019-03-04T20:19:05.462Z,10.03
2019-03-04T20:21:34.634Z,6.73
2019-03-04T20:24:02.761Z,15.80
2019-03-04T20:26:30.469Z,6.03
2019-03-04T20:28:58.554Z,6.83
2019-03-04T20:31:26.506Z,4.60
2019-03-04T20:33:55.091Z,5.20
2019-03-04T20:36:23.091Z,9.83
2019-03-04T20:38:51.257Z,8.73
2019-03-04T20:41:19.340Z,8.87
2019-03-04T20:43:47.162Z,6.53
2019-03-04T20:46:14.862Z,8.90
2019-03-04T20:48:43.127Z,5.67
2019-03-04T20:51:11.244Z,9.03
2019-03-04T20:53:39.792Z,7.53
2019-03-04T20:56:07.866Z,8.70
2019-03-04T20:58:35.512Z,9.43
2019-03-04T21:01:04.403Z,7.30
2019-03-04T21:03:35.103Z,6.97
2019-03-04T21:06:02.349Z,5.97
2019-03-04T21:08:30.590Z,8.77
2019-03-04T21:10:58.759Z,14.97
2019-03-04T21:13:35.152Z,5.70
2019-03-04T21:15:56.990Z,80.40
2019-03-04T21:18:24.736Z,86.23
2019-03-04T21:20:52.716Z,44.43
2019-03-04T21:23:20.842Z,46.30
2019-03-04T21:25:51.730Z,115.70
2019-03-04T21:28:24.473Z,69.73
2019-03-04T21:31:27.208Z,14.43
2019-03-04T21:33:59.370Z,17.47
2019-03-04T21:36:45.421Z,10.83
2019-03-04T21:39:13.723Z,15.37
2019-03-04T21:42:16.465Z,9.17
2019-03-04T21:44:51.008Z,57.10
2019-03-04T21:47:20.521Z,28.17
2019-03-04T21:49:50.078Z,13.80
2019-03-04T21:52:32.921Z,13.43
2019-03-04T21:55:01.683Z,12.90
2019-03-04T21:57:37.826Z,11.40
2019-03-04T22:00:10.023Z,11.23
2019-03-04T22:02:57.221Z,12.43
2019-03-04T22:05:25.539Z,23.30
2019-03-04T22:07:53.908Z,28.20
2019-03-04T22:10:22.181Z,23.80
2019-03-04T22:12:50.423Z,62.23
2019-03-04T22:15:18.376Z,52.23
2019-03-04T22:17:46.388Z,50.27
2019-03-04T22:20:14.697Z,23.30
2019-03-04T22:22:42.317Z,91.23
2019-03-04T22:25:10.545Z,47.87
2019-03-04T22:27:38.508Z,32.83
2019-03-04T22:30:07.588Z,23.40
2019-03-04T22:32:35.852Z,25.93
2019-03-04T22:35:04.491Z,20.33
2019-03-04T22:37:32.771Z,19.37
2019-03-04T22:40:00.398Z,20.70
2019-03-04T22:42:28.141Z,30.00
2019-03-04T22:44:56.268Z,22.00
2019-03-04T22:47:24.387Z,23.83
2019-03-04T22:49:52.249Z,18.47
2019-03-04T22:52:21.008Z,55.53
2019-03-04T22:54:48.302Z,60.50
2019-03-04T22:57:16.140Z,59.77
2019-03-04T22:59:44.253Z,43.43
2019-03-04T23:02:12.049Z,85.53
2019-03-04T23:04:59.106Z,75.23
2019-03-04T23:07:28.655Z,41.13
2019-03-04T23:09:58.194Z,40.23
2019-03-04T23:12:52.056Z,5.03
2019-03-04T23:15:22.337Z,8.87
2019-03-04T23:17:50.715Z,7.03
2019-03-04T23:20:18.930Z,4.57
2019-03-04T23:22:46.882Z,12.97
2019-03-04T23:25:15.791Z,6.90
2019-03-04T23:27:43.726Z,27.70
2019-03-04T23:30:12.836Z,7.10
2019-03-04T23:32:40.667Z,4.50
2019-03-04T23:35:09.199Z,3.77
2019-03-04T23:37:37.468Z,4.00
2019-03-04T23:40:05.798Z,4.00
2019-03-04T23:42:33.728Z,7.27
2019-03-04T23:45:01.714Z,6.00
2019-03-04T23:47:29.931Z,6.40
2019-03-04T23:50:10.037Z,7.60
2019-03-04T23:52:37.662Z,7.20
2019-03-04T23:55:06.078Z,3.30
2019-03-04T23:57:34.592Z,3.30
